Time;durP1;ratioP1;P1;durP2;ratioP2;P2;SDS_P1;SDS_P2;PMS_P1;PMS_P2;Temp;Humidity;BMP_temperature;BMP_pressure;BME280_temperature;BME280_humidity;BME280_pressure;Samples;Min_cycle;Max_cycle;Signal;HPM_P1;HPM_P2
2024/02/21 00:00:55;;;;;;;1.40;1.10;;;21.90;79.30;;;;;;4999459;28;20465;-81
2024/02/21 00:03:21;;;;;;;1.63;1.07;;;21.90;79.30;;;;;;5004195;28;21033;-82
2024/02/21 00:05:48;;;;;;;2.53;1.20;;;21.90;79.20;;;;;;5002911;28;21742;-82
2024/02/21 00:08:15;;;;;;;1.90;1.53;;;21.80;79.20;;;;;;5001967;28;20474;-81
2024/02/21 00:10:42;;;;;;;1.50;1.20;;;21.90;79.30;;;;;;5000704;28;20462;-81
2024/02/21 00:13:09;;;;;;;1.63;1.20;;;21.80;79.10;;;;;;5001151;28;20451;-81
2024/02/21 00:15:35;;;;;;;2.17;1.67;;;21.80;79.20;;;;;;5004093;28;20459;-82
2024/02/21 00:18:04;;;;;;;2.50;1.63;;;21.80;79.10;;;;;;4992389;28;20459;-81
2024/02/21 00:20:30;;;;;;;1.47;1.30;;;21.80;79.20;;;;;;5003475;28;20470;-81
2024/02/21 00:22:57;;;;;;;1.90;1.37;;;21.80;79.20;;;;;;5002043;28;20556;-81
2024/02/21 00:25:24;;;;;;;1.50;1.10;;;21.80;79.10;;;;;;5001112;28;20463;-81
2024/02/21 00:27:51;;;;;;;1.60;1.13;;;21.80;79.90;;;;;;5001418;28;20475;-81
2024/02/21 00:30:17;;;;;;;1.73;1.20;;;21.80;79.20;;;;;;5003009;28;20551;-81
2024/02/21 00:32:44;;;;;;;1.97;1.77;;;21.80;79.10;;;;;;5007592;28;20466;-81
2024/02/21 00:35:12;;;;;;;1.47;1.20;;;21.80;79.20;;;;;;5004148;28;20552;-81
2024/02/21 00:37:39;;;;;;;1.13;1.00;;;21.80;79.20;;;;;;5001607;28;20823;-82
2024/02/21 00:40:07;;;;;;;2.30;1.60;;;21.80;79.10;;;;;;4997390;28;20476;-81
2024/02/21 00:42:34;;;;;;;1.63;1.23;;;21.80;79.10;;;;;;5001579;28;20474;-82
2024/02/21 00:45:01;;;;;;;1.20;0.97;;;21.70;79.00;;;;;;5004785;28;20459;-82
2024/02/21 00:47:27;;;;;;;1.97;1.30;;;21.70;79.00;;;;;;4995766;28;20584;-81
2024/02/21 00:49:55;;;;;;;1.97;1.60;;;21.70;79.00;;;;;;5003945;28;21005;-82
2024/02/21 00:52:23;;;;;;;1.57;1.10;;;21.70;79.00;;;;;;5004780;28;20550;-82
2024/02/21 00:54:50;;;;;;;1.33;1.13;;;21.70;79.10;;;;;;5003223;28;20465;-82
2024/02/21 00:57:16;;;;;;;1.53;1.40;;;21.70;79.00;;;;;;5004098;28;20508;-82
2024/02/21 00:59:43;;;;;;;1.40;1.10;;;21.70;79.00;;;;;;5003530;28;20458;-82
2024/02/21 01:02:10;;;;;;;1.40;1.00;;;21.70;79.00;;;;;;5008699;28;20466;-81
2024/02/21 01:04:37;;;;;;;1.50;1.10;;;21.70;79.00;;;;;;5008992;28;20470;-81
2024/02/21 01:07:04;;;;;;;1.30;1.20;;;21.70;79.00;;;;;;4982021;28;21744;-81
2024/02/21 01:09:32;;;;;;;1.50;1.00;;;21.70;79.10;;;;;;5001755;28;21324;-81
2024/02/21 01:11:59;;;;;;;2.30;1.20;;;21.70;79.00;;;;;;5007224;28;20205;-81
2024/02/21 01:14:26;;;;;;;1.30;1.10;;;21.70;79.10;;;;;;5010823;28;20476;-81
2024/02/21 01:16:52;;;;;;;2.90;1.70;;;21.70;79.00;;;;;;5002282;28;20496;-81
2024/02/21 01:19:19;;;;;;;1.63;1.00;;;21.60;79.00;;;;;;5007992;28;20463;-81
2024/02/21 01:21:46;;;;;;;3.10;1.70;;;21.70;79.20;;;;;;5006122;28;20469;-81
2024/02/21 01:24:12;;;;;;;2.00;1.40;;;21.70;79.00;;;;;;5007467;28;20463;-81
2024/02/21 01:26:41;;;;;;;1.40;1.10;;;21.60;78.90;;;;;;5006386;28;20469;-81
2024/02/21 01:29:08;;;;;;;1.20;0.90;;;21.60;79.00;;;;;;5008653;28;20482;-81
2024/02/21 01:31:34;;;;;;;1.70;1.30;;;21.60;78.90;;;;;;4999147;28;20467;-81
2024/02/21 01:34:01;;;;;;;1.20;1.10;;;21.60;79.00;;;;;;5001547;28;20532;-81
2024/02/21 01:36:28;;;;;;;2.07;1.20;;;21.60;78.90;;;;;;5007991;28;20477;-82
2024/02/21 01:38:54;;;;;;;1.50;1.40;;;21.60;78.90;;;;;;5005943;28;20942;-81
2024/02/21 01:41:21;;;;;;;1.33;1.17;;;21.60;79.00;;;;;;5009407;28;20471;-81
2024/02/21 01:43:49;;;;;;;1.67;1.30;;;21.60;78.90;;;;;;5006569;28;20461;-81
2024/02/21 01:46:16;;;;;;;1.60;1.50;;;21.60;78.90;;;;;;5005382;28;20683;-82
2024/02/21 01:48:45;;;;;;;2.37;1.30;;;21.60;79.00;;;;;;5006348;28;20483;-82
2024/02/21 01:51:12;;;;;;;1.30;1.17;;;21.60;78.90;;;;;;5008067;28;20458;-81
2024/02/21 01:53:44;;;;;;;2.38;1.50;;;21.60;78.90;;;;;;5001592;28;20572;-81
2024/02/21 01:56:11;;;;;;;1.97;1.50;;;21.60;78.90;;;;;;5006494;28;20207;-81
2024/02/21 01:58:41;;;;;;;3.47;1.35;;;21.60;78.90;;;;;;5004976;28;20454;-82
2024/02/21 02:01:10;;;;;;;1.75;1.48;;;21.60;78.80;;;;;;5001889;28;20729;-82
2024/02/21 02:03:37;;;;;;;1.20;1.10;;;21.60;78.90;;;;;;5008842;28;20211;-81
2024/02/21 02:06:06;;;;;;;2.33;1.07;;;21.60;78.90;;;;;;5006950;28;20200;-81
2024/02/21 02:08:34;;;;;;;1.92;1.10;;;21.60;78.90;;;;;;5007082;28;20487;-82
2024/02/21 02:11:01;;;;;;;2.27;1.10;;;21.50;78.80;;;;;;5006362;28;20517;-81
2024/02/21 02:13:27;;;;;;;1.20;1.10;;;21.60;78.90;;;;;;5010049;28;20467;-81
2024/02/21 02:15:55;;;;;;;1.60;1.35;;;21.60;78.90;;;;;;5005403;28;20548;-81
2024/02/21 02:18:23;;;;;;;2.03;1.00;;;21.50;78.70;;;;;;5005137;28;20201;-82
2024/02/21 02:20:51;;;;;;;1.30;1.15;;;21.50;78.70;;;;;;5001451;28;20207;-81
2024/02/21 02:23:23;;;;;;;1.73;1.43;;;21.50;78.70;;;;;;5002745;28;20223;-82
2024/02/21 02:25:51;;;;;;;1.87;1.37;;;21.50;78.70;;;;;;5005670;28;20447;-82
2024/02/21 02:28:19;;;;;;;1.42;1.00;;;21.50;78.70;;;;;;5005691;28;20490;-82
2024/02/21 02:30:45;;;;;;;1.75;1.20;;;21.50;78.70;;;;;;5012501;28;20623;-81
2024/02/21 02:33:12;;;;;;;1.60;1.40;;;21.50;78.70;;;;;;5009959;28;20656;-82
2024/02/21 02:35:39;;;;;;;1.77;1.20;;;21.50;78.70;;;;;;5000554;28;20207;-81
2024/02/21 02:38:06;;;;;;;1.85;1.10;;;21.50;78.70;;;;;;4999605;28;20205;-81
2024/02/21 02:40:36;;;;;;;1.45;1.35;;;21.50;78.80;;;;;;5009337;28;20198;-81
2024/02/21 02:43:03;;;;;;;1.50;1.30;;;21.40;78.60;;;;;;5007846;28;20209;-81
2024/02/21 02:45:30;;;;;;;1.63;1.30;;;21.50;78.70;;;;;;5008685;28;20207;-81
2024/02/21 02:47:57;;;;;;;1.30;1.10;;;21.50;78.80;;;;;;5007354;28;20867;-82
2024/02/21 02:50:24;;;;;;;1.60;1.10;;;21.50;78.80;;;;;;5007382;28;20211;-82
2024/02/21 02:52:51;;;;;;;2.08;1.20;;;21.40;78.60;;;;;;5000982;28;20474;-81
2024/02/21 02:55:17;;;;;;;1.20;1.05;;;21.40;78.60;;;;;;5007138;28;20208;-81
2024/02/21 02:57:45;;;;;;;2.53;1.50;;;21.40;78.60;;;;;;5007480;28;20192;-81
2024/02/21 03:00:14;;;;;;;1.40;1.20;;;21.50;78.70;;;;;;5003649;28;20209;-82
2024/02/21 03:02:42;;;;;;;1.20;0.93;;;21.40;78.50;;;;;;5007563;28;20567;-81
2024/02/21 03:05:14;;;;;;;2.17;1.48;;;21.40;78.60;;;;;;5003833;28;21158;-81
2024/02/21 03:07:41;;;;;;;2.33;1.52;;;21.40;78.60;;;;;;5000962;28;22061;-81
2024/02/21 03:10:09;;;;;;;1.48;1.10;;;21.40;78.60;;;;;;5004627;28;20306;-81
2024/02/21 03:12:35;;;;;;;1.40;1.30;;;21.40;78.70;;;;;;5005293;28;20209;-81
2024/02/21 03:15:05;;;;;;;1.48;1.38;;;21.40;78.70;;;;;;5000820;28;20473;-81
2024/02/21 03:17:34;;;;;;;2.07;1.30;;;21.40;78.60;;;;;;5005708;28;20207;-81
2024/02/21 03:20:00;;;;;;;2.00;1.20;;;21.40;78.70;;;;;;5002967;28;20462;-81
2024/02/21 03:22:27;;;;;;;2.10;1.40;;;21.40;78.60;;;;;;5000360;28;20980;-82
2024/02/21 03:24:54;;;;;;;1.90;1.45;;;21.40;78.60;;;;;;5003557;28;20197;-81
2024/02/21 03:27:21;;;;;;;1.73;1.00;;;21.40;78.60;;;;;;5004753;28;20781;-81
2024/02/21 03:29:47;;;;;;;2.72;1.55;;;21.40;78.60;;;;;;5001488;28;20235;-81
2024/02/21 03:32:15;;;;;;;1.30;1.10;;;21.40;78.60;;;;;;5003087;28;20563;-82
2024/02/21 03:34:42;;;;;;;1.50;1.40;;;21.40;78.60;;;;;;5006439;28;20426;-81
2024/02/21 03:37:09;;;;;;;1.17;0.93;;;21.40;78.70;;;;;;5004378;28;20200;-81
2024/02/21 03:39:36;;;;;;;1.65;1.30;;;21.40;78.60;;;;;;5003703;28;20478;-81
2024/02/21 03:42:04;;;;;;;3.13;1.33;;;21.40;78.60;;;;;;5002722;28;20273;-82
2024/02/21 03:44:31;;;;;;;1.60;1.20;;;21.40;78.60;;;;;;5006173;28;20482;-82
2024/02/21 03:46:58;;;;;;;1.35;1.25;;;21.30;78.50;;;;;;4999714;28;21064;-81
2024/02/21 03:49:26;;;;;;;1.60;1.10;;;21.40;78.50;;;;;;4999283;28;20220;-81
2024/02/21 03:51:53;;;;;;;1.15;1.00;;;21.30;78.50;;;;;;5003379;28;20213;-81
2024/02/21 03:54:20;;;;;;;4.32;1.58;;;21.30;78.50;;;;;;5001495;28;20205;-81
2024/02/21 03:56:47;;;;;;;1.65;1.40;;;21.30;78.50;;;;;;5002484;28;20215;-82
2024/02/21 03:59:14;;;;;;;2.58;1.33;;;21.30;78.50;;;;;;4999772;28;20285;-81
2024/02/21 04:01:41;;;;;;;1.63;1.50;;;21.30;78.50;;;;;;5005681;28;21098;-81
2024/02/21 04:04:07;;;;;;;1.20;1.10;;;21.30;78.50;;;;;;5004731;28;20783;-81
2024/02/21 04:06:36;;;;;;;1.97;1.53;;;21.30;78.50;;;;;;5002001;28;20197;-81
2024/02/21 04:09:03;;;;;;;1.42;1.08;;;21.30;78.40;;;;;;5003260;28;20482;-81
2024/02/21 04:11:30;;;;;;;1.30;1.10;;;21.30;78.40;;;;;;5004342;28;20212;-81
2024/02/21 04:13:56;;;;;;;1.60;1.40;;;21.30;78.50;;;;;;5004722;28;20214;-81
2024/02/21 04:16:23;;;;;;;1.48;1.20;;;21.30;78.40;;;;;;5000982;28;20462;-81
2024/02/21 04:18:50;;;;;;;1.45;1.35;;;21.30;78.40;;;;;;4997802;28;20199;-81
2024/02/21 04:21:17;;;;;;;1.50;1.40;;;21.30;78.40;;;;;;4992267;28;20252;-81
2024/02/21 04:23:45;;;;;;;1.40;1.23;;;21.30;78.50;;;;;;5003636;28;20203;-81
2024/02/21 04:26:12;;;;;;;1.40;1.27;;;21.30;78.50;;;;;;5001670;28;21312;-81
2024/02/21 04:28:39;;;;;;;2.13;1.40;;;21.30;78.40;;;;;;5003063;28;20226;-81
2024/02/21 04:31:05;;;;;;;1.98;1.55;;;21.30;78.50;;;;;;5004278;28;20196;-81
2024/02/21 04:33:32;;;;;;;1.30;0.95;;;21.30;78.40;;;;;;4999613;28;20200;-81
2024/02/21 04:36:00;;;;;;;1.50;1.10;;;21.30;78.50;;;;;;5005488;28;20208;-81
2024/02/21 04:38:28;;;;;;;1.50;1.40;;;21.30;78.40;;;;;;5005368;28;20302;-81
2024/02/21 04:40:58;;;;;;;1.10;0.90;;;21.30;78.50;;;;;;5005307;28;20218;-81
2024/02/21 04:43:25;;;;;;;1.05;0.88;;;21.30;78.40;;;;;;5008595;28;20201;-81
2024/02/21 04:45:53;;;;;;;1.73;1.38;;;21.30;78.40;;;;;;5009497;28;20207;-81
2024/02/21 04:48:20;;;;;;;1.40;1.20;;;21.30;78.40;;;;;;5008852;28;20289;-81
2024/02/21 04:50:46;;;;;;;1.20;1.08;;;21.30;78.40;;;;;;5004929;28;20730;-81
2024/02/21 04:53:13;;;;;;;1.23;1.00;;;21.30;78.40;;;;;;5010903;28;20219;-81
2024/02/21 04:55:40;;;;;;;1.38;1.08;;;21.30;78.40;;;;;;5011156;28;21146;-81
2024/02/21 04:58:09;;;;;;;1.63;0.93;;;21.30;78.40;;;;;;5006935;28;20599;-83
2024/02/21 05:00:35;;;;;;;1.30;1.20;;;21.30;78.40;;;;;;5006341;28;20654;-82
2024/02/21 05:03:02;;;;;;;1.50;1.02;;;21.30;78.40;;;;;;5013022;28;20230;-82
2024/02/21 05:05:29;;;;;;;1.90;1.35;;;21.20;78.20;;;;;;5012833;28;20203;-82
2024/02/21 05:07:56;;;;;;;1.13;1.00;;;21.20;78.20;;;;;;5002089;28;20653;-82
2024/02/21 05:10:22;;;;;;;1.33;1.10;;;21.20;78.20;;;;;;5004362;28;20774;-82
2024/02/21 05:12:49;;;;;;;1.40;1.02;;;21.20;78.30;;;;;;5005620;28;20199;-82
2024/02/21 05:15:17;;;;;;;1.43;1.20;;;21.20;78.30;;;;;;5005312;28;20212;-82
2024/02/21 05:17:44;;;;;;;1.42;0.93;;;21.20;78.30;;;;;;5002265;28;20486;-83
2024/02/21 05:20:11;;;;;;;1.20;0.90;;;21.20;78.30;;;;;;5003999;28;20199;-80
2024/02/21 05:22:38;;;;;;;1.50;1.20;;;21.20;78.40;;;;;;5002718;28;20464;-80
2024/02/21 05:25:06;;;;;;;2.40;1.02;;;21.20;78.30;;;;;;5002628;28;20208;-80
2024/02/21 05:27:32;;;;;;;1.05;0.90;;;21.20;78.30;;;;;;5005132;28;20192;-81
2024/02/21 05:29:59;;;;;;;1.50;1.40;;;21.20;78.20;;;;;;5002609;28;20223;-81
2024/02/21 05:32:28;;;;;;;1.88;1.10;;;21.20;78.20;;;;;;5000500;28;20211;-81
2024/02/21 05:34:54;;;;;;;1.10;1.00;;;21.20;78.20;;;;;;5001534;28;20200;-81
2024/02/21 05:37:21;;;;;;;1.10;1.00;;;21.20;78.20;;;;;;5000457;28;20313;-81
2024/02/21 05:39:48;;;;;;;1.23;1.08;;;21.20;78.40;;;;;;5004433;28;20660;-81
2024/02/21 05:42:15;;;;;;;1.75;1.30;;;21.20;78.40;;;;;;5002041;28;20288;-80
2024/02/21 05:44:42;;;;;;;1.20;1.10;;;21.20;78.40;;;;;;5000187;28;20204;-81
2024/02/21 05:47:10;;;;;;;1.20;1.00;;;21.20;78.40;;;;;;5002766;28;20212;-80
2024/02/21 05:49:38;;;;;;;1.20;0.90;;;21.20;78.50;;;;;;5002316;28;20865;-80
2024/02/21 05:52:06;;;;;;;1.58;1.48;;;21.20;78.50;;;;;;5002580;28;20203;-80
2024/02/21 05:54:33;;;;;;;1.48;1.38;;;21.20;78.50;;;;;;5002768;28;21063;-80
2024/02/21 05:57:00;;;;;;;1.40;1.13;;;21.10;78.50;;;;;;5002388;28;20203;-80
2024/02/21 05:59:26;;;;;;;1.50;1.08;;;21.20;78.60;;;;;;5001088;28;20196;-80
2024/02/21 06:01:57;;;;;;;1.60;1.50;;;21.10;78.50;;;;;;5003708;28;20215;-80
2024/02/21 06:04:24;;;;;;;1.38;1.10;;;21.10;78.60;;;;;;5004687;28;20703;-80
2024/02/21 06:06:52;;;;;;;1.48;0.90;;;21.20;78.60;;;;;;5005230;28;20967;-80
2024/02/21 06:09:19;;;;;;;1.30;1.08;;;21.20;78.70;;;;;;5005092;28;20222;-80
2024/02/21 06:11:46;;;;;;;1.40;0.95;;;21.20;78.70;;;;;;5008913;28;20810;-80
2024/02/21 06:14:13;;;;;;;1.95;1.05;;;21.10;78.60;;;;;;5007675;28;20318;-80
2024/02/21 06:16:40;;;;;;;1.20;1.00;;;21.20;78.70;;;;;;5004979;28;20204;-79
2024/02/21 06:19:07;;;;;;;1.10;1.00;;;21.20;78.80;;;;;;5005784;28;20651;-80
2024/02/21 06:21:33;;;;;;;1.65;1.00;;;21.10;78.60;;;;;;5011968;28;20199;-80
2024/02/21 06:24:01;;;;;;;1.30;1.08;;;21.10;78.70;;;;;;5002853;28;20213;-80
2024/02/21 06:26:28;;;;;;;1.30;1.20;;;21.10;78.60;;;;;;5007943;28;20307;-81
2024/02/21 06:28:55;;;;;;;1.20;1.08;;;21.10;78.70;;;;;;5006923;28;20231;-81
2024/02/21 06:31:21;;;;;;;1.38;0.95;;;21.10;78.80;;;;;;5002993;28;20195;-80
2024/02/21 06:33:48;;;;;;;1.42;1.10;;;21.10;78.90;;;;;;5006779;28;20196;-80
2024/02/21 06:36:15;;;;;;;1.10;1.00;;;21.10;78.70;;;;;;5006997;28;20208;-80
2024/02/21 06:38:42;;;;;;;1.30;1.00;;;21.10;78.80;;;;;;5005041;28;20200;-80
2024/02/21 06:41:18;;;;;;;1.40;1.30;;;21.10;78.70;;;;;;5005196;28;20688;-80
2024/02/21 06:43:45;;;;;;;1.20;1.00;;;21.10;78.70;;;;;;5008206;28;20231;-80
2024/02/21 06:46:12;;;;;;;1.63;0.90;;;21.10;78.90;;;;;;5004173;28;20255;-80
2024/02/21 06:48:39;;;;;;;1.27;0.93;;;21.10;78.80;;;;;;5005116;28;20222;-81
2024/02/21 06:51:05;;;;;;;1.33;1.00;;;21.10;78.80;;;;;;5005248;28;20923;-80
2024/02/21 06:53:32;;;;;;;1.27;1.05;;;21.10;78.80;;;;;;5005573;28;20211;-80
2024/02/21 06:55:59;;;;;;;2.20;1.10;;;21.10;78.90;;;;;;4991221;28;20207;-80
2024/02/21 06:58:27;;;;;;;1.65;1.20;;;21.10;78.80;;;;;;4998647;28;20207;-81
2024/02/21 07:00:54;;;;;;;1.10;1.00;;;21.10;78.80;;;;;;5004735;28;20869;-80
2024/02/21 07:03:20;;;;;;;1.10;0.90;;;21.10;78.80;;;;;;5004987;28;20731;-80
2024/02/21 07:05:47;;;;;;;1.33;1.20;;;21.10;78.90;;;;;;5005400;28;20207;-80
2024/02/21 07:08:14;;;;;;;1.25;1.15;;;21.10;78.90;;;;;;5002705;28;20872;-80
2024/02/21 07:10:40;;;;;;;1.77;1.20;;;21.10;78.90;;;;;;5005768;28;20231;-80
2024/02/21 07:13:07;;;;;;;1.20;1.05;;;21.10;79.00;;;;;;5004826;28;20219;-81
2024/02/21 07:15:36;;;;;;;1.25;1.10;;;21.10;79.00;;;;;;4998557;28;25561;-80
2024/02/21 07:18:02;;;;;;;1.30;1.13;;;21.10;78.90;;;;;;5002392;28;20342;-81
2024/02/21 07:20:29;;;;;;;1.17;0.90;;;21.10;79.00;;;;;;4999260;28;20204;-80
2024/02/21 07:22:56;;;;;;;1.25;1.00;;;21.10;78.90;;;;;;5003360;28;20231;-80
2024/02/21 07:25:23;;;;;;;1.30;1.10;;;21.10;78.90;;;;;;4997811;28;20211;-79
2024/02/21 07:27:50;;;;;;;1.63;1.20;;;21.10;78.90;;;;;;5007032;28;20755;-80
2024/02/21 07:30:17;;;;;;;1.30;1.10;;;21.10;78.90;;;;;;5003134;28;20218;-80
2024/02/21 07:32:45;;;;;;;1.30;1.15;;;21.10;78.90;;;;;;5005465;28;20208;-82
2024/02/21 07:35:12;;;;;;;1.00;0.90;;;21.00;78.80;;;;;;5002607;28;20204;-82
2024/02/21 07:37:38;;;;;;;1.75;1.15;;;21.00;78.90;;;;;;4998507;28;20218;-82
2024/02/21 07:40:07;;;;;;;1.58;1.10;;;21.10;79.10;;;;;;5006142;28;21036;-82
2024/02/21 07:42:34;;;;;;;1.20;1.00;;;21.10;79.10;;;;;;5003947;28;20259;-81
2024/02/21 07:45:00;;;;;;;1.30;1.10;;;21.10;79.10;;;;;;5005048;28;20211;-82
2024/02/21 07:47:27;;;;;;;1.23;1.13;;;21.10;79.20;;;;;;5006380;28;20196;-82
2024/02/21 07:49:55;;;;;;;1.10;0.90;;;21.10;79.10;;;;;;5006799;28;20224;-82
2024/02/21 07:52:22;;;;;;;1.38;1.00;;;21.20;79.20;;;;;;4999428;28;20208;-82
2024/02/21 07:54:49;;;;;;;1.10;0.80;;;21.20;79.20;;;;;;5004039;28;20204;-82
2024/02/21 07:57:16;;;;;;;1.20;0.90;;;21.20;79.10;;;;;;4994067;28;20208;-82
2024/02/21 07:59:42;;;;;;;1.30;1.00;;;21.20;78.70;;;;;;5001663;28;20199;-83
2024/02/21 08:02:10;;;;;;;1.10;0.85;;;21.20;77.50;;;;;;4999422;28;20204;-83
2024/02/21 08:04:37;;;;;;;1.15;1.00;;;21.20;77.60;;;;;;4988910;28;20208;-82
2024/02/21 08:07:06;;;;;;;1.20;1.00;;;21.20;77.50;;;;;;4994387;28;20211;-83
2024/02/21 08:09:35;;;;;;;3.67;1.57;;;21.20;77.80;;;;;;5011724;28;20226;-86
2024/02/21 08:14:50;;;;;;;3.72;1.67;;;21.20;76.90;;;;;;4993426;28;20211;-65
2024/02/21 08:17:19;;;;;;;1.63;1.20;;;21.20;77.00;;;;;;4996641;28;20781;-65
2024/02/21 08:19:53;;;;;;;1.90;1.70;;;21.20;76.80;;;;;;5007778;28;20767;-64
2024/02/21 08:22:39;;;;;;;2.20;1.55;;;21.20;76.80;;;;;;5006023;28;20466;-67
2024/02/21 08:25:10;;;;;;;1.65;1.30;;;21.20;76.60;;;;;;5002125;28;20205;-67
2024/02/21 08:27:39;;;;;;;5.20;1.48;;;21.20;76.40;;;;;;5007258;28;20200;-65
2024/02/21 08:30:16;;;;;;;5.40;1.70;;;21.20;75.80;;;;;;5006583;28;20250;-65
2024/02/21 08:33:08;;;;;;;2.38;1.17;;;21.30;75.70;;;;;;5007883;28;20199;-66
2024/02/21 08:35:42;;;;;;;1.90;1.35;;;21.30;75.60;;;;;;5010043;28;20584;-65
2024/02/21 08:38:15;;;;;;;1.60;1.20;;;21.30;75.80;;;;;;4993489;28;20211;-66
2024/02/21 08:40:44;;;;;;;1.63;1.30;;;21.30;75.60;;;;;;5011854;28;20248;-66
2024/02/21 08:43:30;;;;;;;1.70;1.40;;;21.30;75.70;;;;;;4997745;28;20203;-65
2024/02/21 08:46:10;;;;;;;2.30;1.10;;;21.30;75.50;;;;;;5003794;28;20204;-68
2024/02/21 08:48:40;;;;;;;2.97;1.20;;;21.30;75.60;;;;;;4993801;28;20196;-65
2024/02/21 08:51:17;;;;;;;1.47;1.27;;;21.30;75.40;;;;;;4997281;28;20247;-68
2024/02/21 08:53:54;;;;;;;1.35;1.15;;;21.30;75.50;;;;;;5000947;28;20578;-68
2024/02/21 08:56:26;;;;;;;2.20;1.40;;;21.30;75.40;;;;;;5001201;28;20204;-67
2024/02/21 08:58:52;;;;;;;1.80;1.40;;;21.40;75.60;;;;;;4994653;28;20556;-67
2024/02/21 09:01:22;;;;;;;3.67;1.40;;;21.40;75.70;;;;;;4988449;28;20205;-66
2024/02/21 09:03:58;;;;;;;1.50;1.40;;;21.40;75.70;;;;;;4997173;28;20203;-67
2024/02/21 09:06:30;;;;;;;1.60;1.30;;;21.40;75.60;;;;;;4997817;28;20200;-66
2024/02/21 09:09:08;;;;;;;1.20;1.10;;;21.30;75.40;;;;;;4998677;28;20208;-66
2024/02/21 09:11:42;;;;;;;1.43;1.10;;;21.40;75.40;;;;;;5000446;28;20219;-64
2024/02/21 09:14:10;;;;;;;1.70;1.20;;;21.40;75.50;;;;;;5001748;28;20979;-67
2024/02/21 09:16:37;;;;;;;2.42;1.65;;;21.40;75.60;;;;;;4997956;28;20548;-65
2024/02/21 09:19:08;;;;;;;1.95;1.10;;;21.40;75.60;;;;;;4997647;28;20799;-65
2024/02/21 09:21:37;;;;;;;1.55;1.23;;;21.50;75.60;;;;;;4995358;28;20211;-65
2024/02/21 09:24:07;;;;;;;1.65;1.02;;;21.40;75.40;;;;;;4999320;28;20200;-67
2024/02/21 09:26:35;;;;;;;1.30;1.00;;;21.40;75.50;;;;;;5003501;28;20212;-67
2024/02/21 09:29:08;;;;;;;2.37;1.40;;;21.50;75.80;;;;;;4996619;28;20283;-69
2024/02/21 09:31:48;;;;;;;1.63;1.08;;;21.50;75.70;;;;;;4995624;28;20941;-66
2024/02/21 09:34:21;;;;;;;2.47;1.30;;;21.50;75.60;;;;;;5001423;28;20591;-65
2024/02/21 09:36:49;;;;;;;1.58;1.30;;;21.50;75.60;;;;;;5000129;28;20680;-66
2024/02/21 09:39:23;;;;;;;1.50;1.10;;;21.50;75.60;;;;;;4995685;28;20205;-65
2024/02/21 09:42:06;;;;;;;1.33;1.23;;;21.50;75.60;;;;;;5000262;28;20200;-67
2024/02/21 09:44:37;;;;;;;1.30;0.93;;;21.50;75.60;;;;;;4993886;28;20541;-66
2024/02/21 09:47:10;;;;;;;2.13;1.47;;;21.50;75.70;;;;;;4974159;28;20541;-67
2024/02/21 09:52:24;;;;;;;1.67;1.10;;;21.50;75.60;;;;;;4997093;28;20457;-65
2024/02/21 09:55:04;;;;;;;1.47;1.17;;;21.50;75.60;;;;;;4999202;28;20459;-65
2024/02/21 09:57:34;;;;;;;2.22;1.15;;;21.60;75.70;;;;;;5000304;28;26701;-66
2024/02/21 10:00:07;;;;;;;5.33;1.70;;;21.60;76.20;;;;;;4990182;28;20783;-71
2024/02/21 10:02:39;;;;;;;2.03;0.93;;;21.60;76.50;;;;;;4999500;28;20506;-68
2024/02/21 10:05:08;;;;;;;1.73;1.60;;;21.60;76.80;;;;;;4986168;28;20206;-69
2024/02/21 10:07:35;;;;;;;1.40;0.93;;;21.60;76.70;;;;;;4996793;28;20486;-66
2024/02/21 10:10:11;;;;;;;1.00;0.87;;;21.60;77.50;;;;;;5002240;28;20220;-70
2024/02/21 10:13:02;;;;;;;1.40;1.00;;;21.70;76.70;;;;;;5003636;28;20470;-69
2024/02/21 10:15:33;;;;;;;2.20;0.93;;;21.70;76.70;;;;;;4991953;28;20513;-69
2024/02/21 10:18:00;;;;;;;1.13;1.00;;;21.70;76.60;;;;;;4994802;28;20973;-66
2024/02/21 10:20:32;;;;;;;1.40;1.10;;;21.70;76.70;;;;;;4994000;28;20474;-68
2024/02/21 10:23:03;;;;;;;2.77;1.17;;;21.70;76.60;;;;;;5001955;28;20468;-66
2024/02/21 10:25:33;;;;;;;1.50;0.93;;;21.70;76.60;;;;;;5002449;28;20842;-66
2024/02/21 10:28:07;;;;;;;1.40;1.20;;;21.70;76.50;;;;;;5001764;28;20967;-66
2024/02/21 10:30:35;;;;;;;1.10;0.93;;;21.70;76.60;;;;;;5001480;28;20485;-66
2024/02/21 10:33:06;;;;;;;2.27;1.30;;;21.70;76.50;;;;;;4999339;28;20701;-69
2024/02/21 10:35:38;;;;;;;1.30;1.00;;;21.70;76.50;;;;;;4997799;28;20463;-66
2024/02/21 10:38:05;;;;;;;1.50;1.13;;;21.80;76.60;;;;;;4999399;28;22030;-69
2024/02/21 10:40:39;;;;;;;1.43;1.13;;;21.80;76.60;;;;;;5005603;28;20978;-67
2024/02/21 10:43:11;;;;;;;1.53;1.30;;;21.80;76.50;;;;;;5002365;28;20459;-69
2024/02/21 10:45:48;;;;;;;1.20;1.10;;;21.80;76.50;;;;;;4999985;28;20944;-66
2024/02/21 10:48:24;;;;;;;1.70;1.00;;;21.80;76.50;;;;;;4994085;28;21544;-67
2024/02/21 10:51:13;;;;;;;1.50;1.07;;;21.80;76.50;;;;;;4987824;28;20843;-70
2024/02/21 10:53:47;;;;;;;1.97;1.10;;;21.80;76.50;;;;;;4985170;28;20460;-66
2024/02/21 10:56:25;;;;;;;1.30;1.00;;;21.80;76.50;;;;;;4995327;28;20696;-67
2024/02/21 10:58:53;;;;;;;1.23;1.10;;;21.80;76.50;;;;;;5001949;28;21376;-67
2024/02/21 11:01:23;;;;;;;5.43;1.20;;;21.80;76.40;;;;;;4993479;28;21091;-67
2024/02/21 11:03:53;;;;;;;1.50;1.00;;;21.80;76.60;;;;;;4992019;28;20955;-68
2024/02/21 11:06:27;;;;;;;1.20;1.00;;;21.80;76.60;;;;;;4994992;28;20596;-73
2024/02/21 11:09:03;;;;;;;2.03;1.20;;;21.80;76.50;;;;;;4990492;28;20203;-68
2024/02/21 11:11:42;;;;;;;1.67;1.07;;;21.80;76.50;;;;;;4999907;28;20486;-69
2024/02/21 11:14:18;;;;;;;1.90;0.90;;;21.90;76.70;;;;;;5003745;28;20949;-69
2024/02/21 11:16:45;;;;;;;1.83;0.90;;;21.80;76.50;;;;;;5002821;28;20466;-68
2024/02/21 11:19:33;;;;;;;1.53;1.10;;;21.90;76.80;;;;;;4998361;28;20612;-67
2024/02/21 11:22:01;;;;;;;1.20;0.90;;;21.90;77.10;;;;;;4994283;28;20477;-71
2024/02/21 11:24:30;;;;;;;5.53;1.00;;;21.80;77.10;;;;;;5001146;28;20463;-71
2024/02/21 11:27:12;;;;;;;2.07;1.23;;;21.90;77.10;;;;;;4998002;28;20854;-71
2024/02/21 11:29:59;;;;;;;1.20;0.90;;;21.80;77.00;;;;;;5004595;28;21006;-73
2024/02/21 11:32:30;;;;;;;1.40;1.00;;;21.90;77.10;;;;;;4999752;28;21182;-70
2024/02/21 11:35:04;;;;;;;1.97;1.43;;;21.90;77.10;;;;;;5001385;28;21296;-70
2024/02/21 11:37:38;;;;;;;1.63;1.20;;;21.90;77.10;;;;;;4996058;28;20971;-74
2024/02/21 11:40:14;;;;;;;2.40;1.00;;;21.90;77.10;;;;;;4996859;28;20935;-72
2024/02/21 11:42:50;;;;;;;4.43;1.23;;;21.90;77.20;;;;;;4995064;28;20225;-69
2024/02/21 11:45:21;;;;;;;1.60;1.10;;;21.90;77.20;;;;;;4995664;28;20463;-67
2024/02/21 11:47:53;;;;;;;4.90;1.20;;;22.00;77.40;;;;;;4995371;28;20463;-73
2024/02/21 11:50:20;;;;;;;3.37;1.50;;;21.90;77.40;;;;;;4998322;28;20463;-73
2024/02/21 11:52:49;;;;;;;1.30;0.90;;;22.00;77.50;;;;;;4998185;28;21672;-74
2024/02/21 11:55:16;;;;;;;1.33;1.10;;;22.00;77.60;;;;;;4996120;28;20933;-69
2024/02/21 11:57:46;;;;;;;1.30;1.10;;;22.00;77.70;;;;;;4995076;28;20459;-69
2024/02/21 12:00:20;;;;;;;1.83;1.00;;;22.00;77.80;;;;;;4995333;28;20514;-71
2024/02/21 12:02:47;;;;;;;2.33;1.27;;;22.00;77.90;;;;;;5002503;28;20854;-70
2024/02/21 12:05:16;;;;;;;11.13;1.23;;;22.00;77.90;;;;;;5000229;28;20520;-73
2024/02/21 12:07:46;;;;;;;2.17;1.17;;;22.10;78.00;;;;;;4995824;28;20486;-71
2024/02/21 12:10:26;;;;;;;1.53;0.90;;;22.10;78.10;;;;;;4998376;28;20469;-72
2024/02/21 12:13:14;;;;;;;1.43;1.33;;;22.10;78.10;;;;;;4998648;28;20462;-70
2024/02/21 12:15:50;;;;;;;1.53;1.10;;;22.10;78.20;;;;;;4986305;28;20882;-74
2024/02/21 12:18:41;;;;;;;1.60;0.90;;;22.10;78.20;;;;;;4995218;28;20455;-73
2024/02/21 12:21:14;;;;;;;1.60;1.10;;;22.10;78.20;;;;;;5001179;28;20465;-72
2024/02/21 12:23:43;;;;;;;1.80;1.10;;;22.20;78.20;;;;;;5001989;28;20522;-71
2024/02/21 12:26:13;;;;;;;1.47;1.00;;;22.20;78.30;;;;;;4998457;28;21310;-72
2024/02/21 12:28:46;;;;;;;1.57;0.97;;;22.20;78.20;;;;;;4996880;28;20458;-72
2024/02/21 12:31:21;;;;;;;1.93;1.10;;;22.20;78.20;;;;;;4996845;28;20483;-68
2024/02/21 12:33:54;;;;;;;1.10;0.90;;;22.30;78.40;;;;;;4997536;28;20834;-76
2024/02/21 12:36:22;;;;;;;1.40;1.10;;;22.30;78.20;;;;;;4997179;28;21140;-70
2024/02/21 12:38:49;;;;;;;1.27;1.07;;;22.30;78.20;;;;;;5000242;28;20458;-75
2024/02/21 12:41:21;;;;;;;1.50;1.00;;;22.30;78.30;;;;;;5000687;28;21157;-75
2024/02/21 12:43:59;;;;;;;1.50;1.07;;;22.30;78.30;;;;;;5002008;28;20451;-70
2024/02/21 12:46:28;;;;;;;3.10;1.10;;;22.30;78.30;;;;;;4999766;28;21949;-75
2024/02/21 12:48:57;;;;;;;1.30;1.00;;;22.30;78.30;;;;;;4998059;28;20462;-73
2024/02/21 12:51:29;;;;;;;1.00;0.90;;;22.30;78.30;;;;;;5004098;28;20482;-73
2024/02/21 12:53:56;;;;;;;2.33;1.00;;;22.30;78.20;;;;;;5006745;28;20467;-72
2024/02/21 12:56:29;;;;;;;1.00;0.87;;;22.30;78.20;;;;;;5005526;28;20458;-75
2024/02/21 12:59:01;;;;;;;1.40;1.00;;;22.30;78.10;;;;;;4998470;28;21183;-71
2024/02/21 13:01:30;;;;;;;1.40;1.00;;;22.30;78.20;;;;;;5008533;28;20466;-73
2024/02/21 13:04:00;;;;;;;1.13;0.97;;;22.30;78.10;;;;;;5005745;28;20464;-73